sensor_id;sensor_type;location;lat;lon;timestamp;P1;durP1;ratioP1;P2;durP2;ratioP2
16228;SDS011;8222;51.462;12.630;2023-05-09T00:02:08;6.17;;;5.60;;
16228;SDS011;8222;51.462;12.630;2023-05-09T00:04:36;7.47;;;6.78;;
16228;SDS011;8222;51.462;12.630;2023-05-09T00:07:02;6.50;;;5.93;;
16228;SDS011;8222;51.462;12.630;2023-05-09T00:09:27;7.47;;;6.88;;
16228;SDS011;8222;51.462;12.630;2023-05-09T00:11:53;7.38;;;6.68;;
16228;SDS011;8222;51.462;12.630;2023-05-09T00:14:21;5.50;;;5.10;;
16228;SDS011;8222;51.462;12.630;2023-05-09T00:16:48;7.50;;;6.03;;
16228;SDS011;8222;51.462;12.630;2023-05-09T00:19:14;7.40;;;6.78;;
16228;SDS011;8222;51.462;12.630;2023-05-09T00:21:42;7.73;;;7.00;;
16228;SDS011;8222;51.462;12.630;2023-05-09T00:24:08;7.17;;;6.47;;
16228;SDS011;8222;51.462;12.630;2023-05-09T00:26:34;9.57;;;7.00;;
16228;SDS011;8222;51.462;12.630;2023-05-09T00:29:02;7.95;;;7.15;;
16228;SDS011;8222;51.462;12.630;2023-05-09T00:31:35;7.97;;;7.20;;
16228;SDS011;8222;51.462;12.630;2023-05-09T00:34:00;6.77;;;6.13;;
16228;SDS011;8222;51.462;12.630;2023-05-09T00:36:29;6.73;;;6.03;;
16228;SDS011;8222;51.462;12.630;2023-05-09T00:38:59;6.90;;;6.07;;
16228;SDS011;8222;51.462;12.630;2023-05-09T00:41:24;7.15;;;6.45;;
16228;SDS011;8222;51.462;12.630;2023-05-09T00:43:52;7.18;;;6.47;;
16228;SDS011;8222;51.462;12.630;2023-05-09T00:46:18;7.80;;;7.10;;
16228;SDS011;8222;51.462;12.630;2023-05-09T00:48:49;6.97;;;6.37;;
16228;SDS011;8222;51.462;12.630;2023-05-09T00:51:16;7.53;;;6.73;;
16228;SDS011;8222;51.462;12.630;2023-05-09T00:53:43;7.35;;;6.63;;
16228;SDS011;8222;51.462;12.630;2023-05-09T00:56:11;7.00;;;6.40;;
16228;SDS011;8222;51.462;12.630;2023-05-09T00:58:41;7.07;;;6.45;;
16228;SDS011;8222;51.462;12.630;2023-05-09T01:01:09;7.40;;;6.60;;
16228;SDS011;8222;51.462;12.630;2023-05-09T01:03:38;7.63;;;6.90;;
16228;SDS011;8222;51.462;12.630;2023-05-09T01:06:09;5.67;;;5.27;;
16228;SDS011;8222;51.462;12.630;2023-05-09T01:08:45;7.18;;;6.55;;
16228;SDS011;8222;51.462;12.630;2023-05-09T01:16:58;6.68;;;6.07;;
16228;SDS011;8222;51.462;12.630;2023-05-09T01:19:58;7.25;;;5.95;;
16228;SDS011;8222;51.462;12.630;2023-05-09T01:22:38;6.60;;;5.68;;
16228;SDS011;8222;51.462;12.630;2023-05-09T01:28:13;7.13;;;5.73;;
16228;SDS011;8222;51.462;12.630;2023-05-09T01:30:57;7.07;;;6.15;;
16228;SDS011;8222;51.462;12.630;2023-05-09T01:33:26;7.50;;;6.30;;
16228;SDS011;8222;51.462;12.630;2023-05-09T01:36:00;7.82;;;6.88;;
16228;SDS011;8222;51.462;12.630;2023-05-09T01:38:29;7.23;;;6.50;;
16228;SDS011;8222;51.462;12.630;2023-05-09T01:40:58;6.67;;;6.00;;
16228;SDS011;8222;51.462;12.630;2023-05-09T01:43:26;6.07;;;5.47;;
16228;SDS011;8222;51.462;12.630;2023-05-09T01:45:53;6.63;;;6.00;;
16228;SDS011;8222;51.462;12.630;2023-05-09T01:48:22;7.17;;;6.57;;
16228;SDS011;8222;51.462;12.630;2023-05-09T01:50:53;7.68;;;6.18;;
16228;SDS011;8222;51.462;12.630;2023-05-09T01:53:21;6.32;;;5.72;;
16228;SDS011;8222;51.462;12.630;2023-05-09T01:55:47;7.47;;;5.13;;
16228;SDS011;8222;51.462;12.630;2023-05-09T01:58:15;5.33;;;4.83;;
16228;SDS011;8222;51.462;12.630;2023-05-09T02:00:42;5.90;;;5.30;;
16228;SDS011;8222;51.462;12.630;2023-05-09T02:03:13;4.90;;;4.50;;
16228;SDS011;8222;51.462;12.630;2023-05-09T02:05:43;8.03;;;5.43;;
16228;SDS011;8222;51.462;12.630;2023-05-09T02:08:17;5.57;;;5.10;;
16228;SDS011;8222;51.462;12.630;2023-05-09T02:10:45;7.13;;;5.50;;
16228;SDS011;8222;51.462;12.630;2023-05-09T02:13:13;5.80;;;5.23;;
16228;SDS011;8222;51.462;12.630;2023-05-09T02:15:39;6.67;;;6.07;;
16228;SDS011;8222;51.462;12.630;2023-05-09T02:18:05;5.03;;;4.63;;
16228;SDS011;8222;51.462;12.630;2023-05-09T02:20:31;5.88;;;5.32;;
16228;SDS011;8222;51.462;12.630;2023-05-09T02:22:59;6.97;;;6.28;;
16228;SDS011;8222;51.462;12.630;2023-05-09T02:25:28;6.78;;;6.25;;
16228;SDS011;8222;51.462;12.630;2023-05-09T02:27:57;6.57;;;5.40;;
16228;SDS011;8222;51.462;12.630;2023-05-09T02:30:26;6.87;;;6.27;;
16228;SDS011;8222;51.462;12.630;2023-05-09T02:33:10;6.53;;;5.85;;
16228;SDS011;8222;51.462;12.630;2023-05-09T02:35:43;5.83;;;5.33;;
16228;SDS011;8222;51.462;12.630;2023-05-09T02:38:12;7.20;;;6.50;;
16228;SDS011;8222;51.462;12.630;2023-05-09T02:40:41;6.03;;;5.53;;
16228;SDS011;8222;51.462;12.630;2023-05-09T02:43:11;6.40;;;5.40;;
16228;SDS011;8222;51.462;12.630;2023-05-09T02:45:39;6.97;;;6.28;;
16228;SDS011;8222;51.462;12.630;2023-05-09T02:48:05;11.10;;;6.27;;
16228;SDS011;8222;51.462;12.630;2023-05-09T02:50:31;6.95;;;5.88;;
16228;SDS011;8222;51.462;12.630;2023-05-09T02:52:56;7.60;;;6.57;;
16228;SDS011;8222;51.462;12.630;2023-05-09T02:55:22;6.55;;;5.95;;
16228;SDS011;8222;51.462;12.630;2023-05-09T02:57:48;5.50;;;4.93;;
16228;SDS011;8222;51.462;12.630;2023-05-09T03:00:14;6.27;;;5.70;;
16228;SDS011;8222;51.462;12.630;2023-05-09T03:02:42;5.10;;;4.67;;
16228;SDS011;8222;51.462;12.630;2023-05-09T03:05:11;8.23;;;6.27;;
16228;SDS011;8222;51.462;12.630;2023-05-09T03:07:36;5.70;;;5.30;;
16228;SDS011;8222;51.462;12.630;2023-05-09T03:10:05;7.70;;;6.38;;
16228;SDS011;8222;51.462;12.630;2023-05-09T03:12:37;5.88;;;5.38;;
16228;SDS011;8222;51.462;12.630;2023-05-09T03:15:07;6.10;;;5.50;;
16228;SDS011;8222;51.462;12.630;2023-05-09T03:17:33;5.60;;;5.10;;
16228;SDS011;8222;51.462;12.630;2023-05-09T03:19:59;6.40;;;5.80;;
16228;SDS011;8222;51.462;12.630;2023-05-09T03:22:25;7.00;;;5.37;;
16228;SDS011;8222;51.462;12.630;2023-05-09T03:24:54;5.50;;;5.00;;
16228;SDS011;8222;51.462;12.630;2023-05-09T03:27:19;6.90;;;6.20;;
16228;SDS011;8222;51.462;12.630;2023-05-09T03:29:45;6.73;;;6.03;;
16228;SDS011;8222;51.462;12.630;2023-05-09T03:32:11;6.50;;;5.80;;
16228;SDS011;8222;51.462;12.630;2023-05-09T03:34:37;7.30;;;6.70;;
16228;SDS011;8222;51.462;12.630;2023-05-09T03:37:05;6.57;;;5.97;;
16228;SDS011;8222;51.462;12.630;2023-05-09T03:39:31;7.03;;;5.77;;
16228;SDS011;8222;51.462;12.630;2023-05-09T03:41:56;6.70;;;5.43;;
16228;SDS011;8222;51.462;12.630;2023-05-09T03:44:22;6.27;;;5.67;;
16228;SDS011;8222;51.462;12.630;2023-05-09T03:46:48;6.47;;;5.83;;
16228;SDS011;8222;51.462;12.630;2023-05-09T03:49:14;6.20;;;5.60;;
16228;SDS011;8222;51.462;12.630;2023-05-09T03:51:42;6.80;;;6.20;;
16228;SDS011;8222;51.462;12.630;2023-05-09T03:54:10;12.60;;;11.30;;
16228;SDS011;8222;51.462;12.630;2023-05-09T03:56:36;6.27;;;5.70;;
16228;SDS011;8222;51.462;12.630;2023-05-09T03:59:02;6.40;;;5.80;;
16228;SDS011;8222;51.462;12.630;2023-05-09T04:01:30;6.18;;;5.57;;
16228;SDS011;8222;51.462;12.630;2023-05-09T04:03:56;6.00;;;5.30;;
16228;SDS011;8222;51.462;12.630;2023-05-09T04:06:21;7.83;;;6.37;;
16228;SDS011;8222;51.462;12.630;2023-05-09T04:08:47;6.53;;;5.93;;
16228;SDS011;8222;51.462;12.630;2023-05-09T04:11:13;6.63;;;5.97;;
16228;SDS011;8222;51.462;12.630;2023-05-09T04:13:42;7.40;;;6.65;;
16228;SDS011;8222;51.462;12.630;2023-05-09T04:16:07;7.00;;;6.40;;
16228;SDS011;8222;51.462;12.630;2023-05-09T04:18:35;7.43;;;6.32;;
16228;SDS011;8222;51.462;12.630;2023-05-09T04:21:03;6.77;;;6.17;;
16228;SDS011;8222;51.462;12.630;2023-05-09T04:23:30;6.87;;;6.23;;
16228;SDS011;8222;51.462;12.630;2023-05-09T04:25:55;6.63;;;5.97;;
16228;SDS011;8222;51.462;12.630;2023-05-09T04:28:21;6.33;;;5.73;;
16228;SDS011;8222;51.462;12.630;2023-05-09T04:30:47;6.13;;;5.53;;
16228;SDS011;8222;51.462;12.630;2023-05-09T04:33:12;6.40;;;5.80;;
16228;SDS011;8222;51.462;12.630;2023-05-09T04:35:41;6.50;;;5.90;;
16228;SDS011;8222;51.462;12.630;2023-05-09T04:38:06;9.47;;;5.57;;
16228;SDS011;8222;51.462;12.630;2023-05-09T04:40:32;5.45;;;4.95;;
16228;SDS011;8222;51.462;12.630;2023-05-09T04:43:00;5.63;;;5.00;;
16228;SDS011;8222;51.462;12.630;2023-05-09T04:45:27;6.00;;;5.13;;
16228;SDS011;8222;51.462;12.630;2023-05-09T04:47:53;7.60;;;4.60;;
16228;SDS011;8222;51.462;12.630;2023-05-09T04:50:23;5.73;;;4.67;;
16228;SDS011;8222;51.462;12.630;2023-05-09T04:52:49;6.63;;;5.93;;
16228;SDS011;8222;51.462;12.630;2023-05-09T04:55:14;4.93;;;4.53;;
16228;SDS011;8222;51.462;12.630;2023-05-09T04:57:40;6.95;;;5.15;;
16228;SDS011;8222;51.462;12.630;2023-05-09T05:00:06;5.17;;;4.67;;
16228;SDS011;8222;51.462;12.630;2023-05-09T05:02:32;6.23;;;5.30;;
16228;SDS011;8222;51.462;12.630;2023-05-09T05:04:58;8.13;;;6.57;;
16228;SDS011;8222;51.462;12.630;2023-05-09T05:07:26;8.35;;;5.80;;
16228;SDS011;8222;51.462;12.630;2023-05-09T05:09:52;6.45;;;5.85;;
16228;SDS011;8222;51.462;12.630;2023-05-09T05:12:18;6.00;;;5.57;;
16228;SDS011;8222;51.462;12.630;2023-05-09T05:14:43;6.17;;;5.67;;
16228;SDS011;8222;51.462;12.630;2023-05-09T05:17:09;4.60;;;4.20;;
16228;SDS011;8222;51.462;12.630;2023-05-09T05:19:35;5.53;;;5.03;;
16228;SDS011;8222;51.462;12.630;2023-05-09T05:22:01;6.77;;;4.63;;
16228;SDS011;8222;51.462;12.630;2023-05-09T05:24:26;8.50;;;6.07;;
16228;SDS011;8222;51.462;12.630;2023-05-09T05:26:57;6.10;;;5.50;;
16228;SDS011;8222;51.462;12.630;2023-05-09T05:29:25;6.00;;;5.43;;
16228;SDS011;8222;51.462;12.630;2023-05-09T05:31:50;4.33;;;4.03;;
16228;SDS011;8222;51.462;12.630;2023-05-09T05:34:18;5.68;;;5.18;;
16228;SDS011;8222;51.462;12.630;2023-05-09T05:36:44;5.47;;;4.97;;
16228;SDS011;8222;51.462;12.630;2023-05-09T05:39:13;5.17;;;4.67;;
16228;SDS011;8222;51.462;12.630;2023-05-09T05:41:38;5.27;;;4.63;;
16228;SDS011;8222;51.462;12.630;2023-05-09T05:44:04;6.10;;;4.73;;
16228;SDS011;8222;51.462;12.630;2023-05-09T05:46:30;5.68;;;5.20;;
16228;SDS011;8222;51.462;12.630;2023-05-09T05:48:55;5.57;;;4.93;;
16228;SDS011;8222;51.462;12.630;2023-05-09T05:51:21;5.27;;;4.77;;
16228;SDS011;8222;51.462;12.630;2023-05-09T05:53:47;5.70;;;4.93;;
16228;SDS011;8222;51.462;12.630;2023-05-09T05:56:18;4.27;;;3.87;;
16228;SDS011;8222;51.462;12.630;2023-05-09T05:58:43;5.15;;;4.65;;
16228;SDS011;8222;51.462;12.630;2023-05-09T06:01:13;5.47;;;4.22;;
16228;SDS011;8222;51.462;12.630;2023-05-09T06:03:41;4.68;;;4.05;;
16228;SDS011;8222;51.462;12.630;2023-05-09T06:06:07;4.55;;;4.15;;
16228;SDS011;8222;51.462;12.630;2023-05-09T06:08:35;5.03;;;4.53;;
16228;SDS011;8222;51.462;12.630;2023-05-09T06:11:04;5.13;;;4.22;;
16228;SDS011;8222;51.462;12.630;2023-05-09T06:13:30;4.30;;;3.40;;
16228;SDS011;8222;51.462;12.630;2023-05-09T06:15:55;4.10;;;3.53;;
16228;SDS011;8222;51.462;12.630;2023-05-09T06:18:21;4.78;;;4.38;;
16228;SDS011;8222;51.462;12.630;2023-05-09T06:20:47;4.83;;;3.90;;
16228;SDS011;8222;51.462;12.630;2023-05-09T06:23:13;4.30;;;3.80;;
16228;SDS011;8222;51.462;12.630;2023-05-09T06:25:38;4.43;;;3.63;;
16228;SDS011;8222;51.462;12.630;2023-05-09T06:28:04;4.73;;;3.93;;
16228;SDS011;8222;51.462;12.630;2023-05-09T06:30:33;4.05;;;3.75;;
16228;SDS011;8222;51.462;12.630;2023-05-09T06:32:58;4.83;;;3.60;;
16228;SDS011;8222;51.462;12.630;2023-05-09T06:35:27;3.90;;;3.60;;
16228;SDS011;8222;51.462;12.630;2023-05-09T06:37:52;4.43;;;3.37;;
16228;SDS011;8222;51.462;12.630;2023-05-09T06:40:20;3.37;;;3.07;;
16228;SDS011;8222;51.462;12.630;2023-05-09T06:42:48;4.43;;;4.03;;
16228;SDS011;8222;51.462;12.630;2023-05-09T06:45:14;4.30;;;3.80;;
16228;SDS011;8222;51.462;12.630;2023-05-09T06:47:40;4.70;;;3.67;;
16228;SDS011;8222;51.462;12.630;2023-05-09T06:50:06;4.40;;;3.80;;
16228;SDS011;8222;51.462;12.630;2023-05-09T06:52:32;4.65;;;3.20;;
16228;SDS011;8222;51.462;12.630;2023-05-09T06:54:58;4.23;;;3.93;;
16228;SDS011;8222;51.462;12.630;2023-05-09T06:57:23;4.75;;;4.35;;
16228;SDS011;8222;51.462;12.630;2023-05-09T06:59:54;5.80;;;4.25;;
16228;SDS011;8222;51.462;12.630;2023-05-09T07:02:20;4.75;;;4.35;;
16228;SDS011;8222;51.462;12.630;2023-05-09T07:04:46;5.95;;;4.30;;
16228;SDS011;8222;51.462;12.630;2023-05-09T07:07:11;5.17;;;3.47;;
16228;SDS011;8222;51.462;12.630;2023-05-09T07:09:37;4.80;;;4.30;;
16228;SDS011;8222;51.462;12.630;2023-05-09T07:12:03;3.13;;;2.93;;
16228;SDS011;8222;51.462;12.630;2023-05-09T07:14:29;4.93;;;4.40;;
16228;SDS011;8222;51.462;12.630;2023-05-09T07:16:57;4.57;;;4.00;;
16228;SDS011;8222;51.462;12.630;2023-05-09T07:19:23;4.57;;;4.03;;
16228;SDS011;8222;51.462;12.630;2023-05-09T07:21:48;4.00;;;3.60;;
16228;SDS011;8222;51.462;12.630;2023-05-09T07:24:17;4.60;;;4.30;;
16228;SDS011;8222;51.462;12.630;2023-05-09T07:26:42;4.63;;;4.17;;
16228;SDS011;8222;51.462;12.630;2023-05-09T07:29:08;3.90;;;3.53;;
16228;SDS011;8222;51.462;12.630;2023-05-09T07:31:34;4.82;;;4.30;;
16228;SDS011;8222;51.462;12.630;2023-05-09T07:33:59;4.60;;;4.20;;
16228;SDS011;8222;51.462;12.630;2023-05-09T07:36:25;3.63;;;3.33;;
16228;SDS011;8222;51.462;12.630;2023-05-09T07:38:51;4.07;;;3.30;;
16228;SDS011;8222;51.462;12.630;2023-05-09T07:41:17;4.03;;;3.73;;
16228;SDS011;8222;51.462;12.630;2023-05-09T07:43:43;3.95;;;3.58;;
16228;SDS011;8222;51.462;12.630;2023-05-09T07:46:11;3.83;;;3.17;;
16228;SDS011;8222;51.462;12.630;2023-05-09T07:48:39;3.97;;;3.60;;
16228;SDS011;8222;51.462;12.630;2023-05-09T07:51:07;4.22;;;3.88;;
16228;SDS011;8222;51.462;12.630;2023-05-09T07:53:35;4.03;;;3.37;;
16228;SDS011;8222;51.462;12.630;2023-05-09T07:56:01;4.53;;;3.60;;
16228;SDS011;8222;51.462;12.630;2023-05-09T07:58:30;3.90;;;3.50;;
16228;SDS011;8222;51.462;12.630;2023-05-09T08:01:01;4.15;;;3.78;;
16228;SDS011;8222;51.462;12.630;2023-05-09T08:03:26;5.13;;;3.70;;
16228;SDS011;8222;51.462;12.630;2023-05-09T08:05:53;4.17;;;3.87;;
16228;SDS011;8222;51.462;12.630;2023-05-09T08:08:22;4.53;;;4.13;;
16228;SDS011;8222;51.462;12.630;2023-05-09T08:10:50;4.13;;;3.67;;
16228;SDS011;8222;51.462;12.630;2023-05-09T08:13:15;4.83;;;3.20;;
16228;SDS011;8222;51.462;12.630;2023-05-09T08:15:42;3.88;;;3.58;;
16228;SDS011;8222;51.462;12.630;2023-05-09T08:18:11;3.78;;;3.47;;
16228;SDS011;8222;51.462;12.630;2023-05-09T08:20:36;3.97;;;3.57;;
16228;SDS011;8222;51.462;12.630;2023-05-09T08:23:02;5.13;;;3.80;;
16228;SDS011;8222;51.462;12.630;2023-05-09T08:25:30;4.10;;;3.80;;
16228;SDS011;8222;51.462;12.630;2023-05-09T08:27:56;4.93;;;3.70;;
16228;SDS011;8222;51.462;12.630;2023-05-09T08:30:22;3.85;;;3.55;;
16228;SDS011;8222;51.462;12.630;2023-05-09T08:32:49;3.92;;;3.15;;
16228;SDS011;8222;51.462;12.630;2023-05-09T08:35:15;4.27;;;3.87;;
16228;SDS011;8222;51.462;12.630;2023-05-09T08:37:41;3.90;;;3.50;;
16228;SDS011;8222;51.462;12.630;2023-05-09T08:40:07;3.53;;;3.23;;
16228;SDS011;8222;51.462;12.630;2023-05-09T08:42:36;4.30;;;3.90;;
16228;SDS011;8222;51.462;12.630;2023-05-09T08:45:10;4.23;;;3.60;;
16228;SDS011;8222;51.462;12.630;2023-05-09T08:47:41;4.22;;;3.83;;
16228;SDS011;8222;51.462;12.630;2023-05-09T08:50:10;4.88;;;3.92;;
16228;SDS011;8222;51.462;12.630;2023-05-09T08:52:38;4.07;;;3.67;;
16228;SDS011;8222;51.462;12.630;2023-05-09T08:55:04;4.75;;;3.55;;
16228;SDS011;8222;51.462;12.630;2023-05-09T08:57:31;4.28;;;3.75;;
16228;SDS011;8222;51.462;12.630;2023-05-09T09:00:00;4.43;;;2.87;;
16228;SDS011;8222;51.462;12.630;2023-05-09T09:02:35;4.07;;;3.67;;
16228;SDS011;8222;51.462;12.630;2023-05-09T09:05:04;3.75;;;3.45;;
16228;SDS011;8222;51.462;12.630;2023-05-09T09:07:32;4.63;;;3.80;;
16228;SDS011;8222;51.462;12.630;2023-05-09T09:10:02;4.03;;;3.28;;
16228;SDS011;8222;51.462;12.630;2023-05-09T09:12:28;4.13;;;3.70;;
16228;SDS011;8222;51.462;12.630;2023-05-09T09:14:59;3.70;;;3.43;;
16228;SDS011;8222;51.462;12.630;2023-05-09T09:17:30;3.97;;;3.58;;
16228;SDS011;8222;51.462;12.630;2023-05-09T09:19:59;4.45;;;4.05;;
16228;SDS011;8222;51.462;12.630;2023-05-09T09:22:31;4.27;;;2.90;;
16228;SDS011;8222;51.462;12.630;2023-05-09T09:24:58;3.75;;;3.42;;
16228;SDS011;8222;51.462;12.630;2023-05-09T09:27:25;4.22;;;3.70;;
16228;SDS011;8222;51.462;12.630;2023-05-09T09:29:53;3.70;;;3.40;;
16228;SDS011;8222;51.462;12.630;2023-05-09T09:32:19;3.50;;;3.20;;
16228;SDS011;8222;51.462;12.630;2023-05-09T09:35:03;3.43;;;3.13;;
16228;SDS011;8222;51.462;12.630;2023-05-09T09:37:38;3.50;;;3.20;;
16228;SDS011;8222;51.462;12.630;2023-05-09T09:40:07;4.13;;;3.42;;
16228;SDS011;8222;51.462;12.630;2023-05-09T09:42:45;3.85;;;3.45;;
16228;SDS011;8222;51.462;12.630;2023-05-09T09:45:15;3.60;;;3.27;;
16228;SDS011;8222;51.462;12.630;2023-05-09T09:47:45;4.93;;;3.75;;
16228;SDS011;8222;51.462;12.630;2023-05-09T09:50:12;3.88;;;3.38;;
16228;SDS011;8222;51.462;12.630;2023-05-09T09:52:43;3.27;;;2.97;;
16228;SDS011;8222;51.462;12.630;2023-05-09T09:55:15;3.58;;;3.28;;
16228;SDS011;8222;51.462;12.630;2023-05-09T09:57:42;4.00;;;3.60;;
16228;SDS011;8222;51.462;12.630;2023-05-09T10:00:12;3.37;;;3.00;;
16228;SDS011;8222;51.462;12.630;2023-05-09T10:02:49;3.28;;;3.08;;
16228;SDS011;8222;51.462;12.630;2023-05-09T10:07:53;3.57;;;3.37;;
16228;SDS011;8222;51.462;12.630;2023-05-09T10:10:29;4.27;;;3.30;;
16228;SDS011;8222;51.462;12.630;2023-05-09T10:12:56;4.37;;;3.47;;
16228;SDS011;8222;51.462;12.630;2023-05-09T10:15:34;3.73;;;2.70;;
16228;SDS011;8222;51.462;12.630;2023-05-09T10:18:04;3.40;;;3.10;;
16228;SDS011;8222;51.462;12.630;2023-05-09T10:20:32;3.83;;;3.45;;
16228;SDS011;8222;51.462;12.630;2023-05-09T10:23:01;4.40;;;3.50;;
16228;SDS011;8222;51.462;12.630;2023-05-09T10:28:00;4.28;;;3.30;;
16228;SDS011;8222;51.462;12.630;2023-05-09T10:30:34;3.27;;;3.00;;
16228;SDS011;8222;51.462;12.630;2023-05-09T10:33:08;4.40;;;3.50;;
16228;SDS011;8222;51.462;12.630;2023-05-09T10:35:36;10.03;;;3.00;;
16228;SDS011;8222;51.462;12.630;2023-05-09T10:38:08;3.03;;;2.80;;
16228;SDS011;8222;51.462;12.630;2023-05-09T10:40:36;3.60;;;3.30;;
16228;SDS011;8222;51.462;12.630;2023-05-09T10:43:06;3.25;;;2.95;;
16228;SDS011;8222;51.462;12.630;2023-05-09T10:45:32;4.20;;;3.80;;
16228;SDS011;8222;51.462;12.630;2023-05-09T10:48:06;3.40;;;3.10;;
16228;SDS011;8222;51.462;12.630;2023-05-09T10:50:33;3.75;;;2.92;;
16228;SDS011;8222;51.462;12.630;2023-05-09T10:53:04;2.40;;;2.30;;
16228;SDS011;8222;51.462;12.630;2023-05-09T11:00:59;3.75;;;3.45;;
16228;SDS011;8222;51.462;12.630;2023-05-09T11:03:27;3.30;;;3.10;;
16228;SDS011;8222;51.462;12.630;2023-05-09T11:06:29;3.30;;;3.00;;
16228;SDS011;8222;51.462;12.630;2023-05-09T11:11:57;3.90;;;3.00;;
16228;SDS011;8222;51.462;12.630;2023-05-09T11:14:55;3.97;;;3.30;;
16228;SDS011;8222;51.462;12.630;2023-05-09T11:17:36;3.90;;;2.92;;
16228;SDS011;8222;51.462;12.630;2023-05-09T11:20:05;3.77;;;3.10;;
16228;SDS011;8222;51.462;12.630;2023-05-09T11:22:37;3.70;;;3.40;;
16228;SDS011;8222;51.462;12.630;2023-05-09T11:25:08;3.17;;;2.97;;
16228;SDS011;8222;51.462;12.630;2023-05-09T11:27:40;3.03;;;2.83;;
16228;SDS011;8222;51.462;12.630;2023-05-09T11:30:19;3.75;;;3.35;;
16228;SDS011;8222;51.462;12.630;2023-05-09T11:32:52;3.72;;;3.42;;
16228;SDS011;8222;51.462;12.630;2023-05-09T11:35:24;4.93;;;4.10;;
16228;SDS011;8222;51.462;12.630;2023-05-09T11:38:00;3.40;;;3.10;;
16228;SDS011;8222;51.462;12.630;2023-05-09T11:40:30;4.30;;;3.30;;
16228;SDS011;8222;51.462;12.630;2023-05-09T11:43:00;3.42;;;3.13;;
16228;SDS011;8222;51.462;12.630;2023-05-09T11:45:29;3.03;;;2.73;;
16228;SDS011;8222;51.462;12.630;2023-05-09T11:47:56;2.80;;;2.60;;
16228;SDS011;8222;51.462;12.630;2023-05-09T11:50:22;3.08;;;2.83;;
16228;SDS011;8222;51.462;12.630;2023-05-09T11:52:51;3.42;;;3.13;;
16228;SDS011;8222;51.462;12.630;2023-05-09T11:55:20;3.35;;;3.03;;
16228;SDS011;8222;51.462;12.630;2023-05-09T11:57:47;3.22;;;2.90;;
16228;SDS011;8222;51.462;12.630;2023-05-09T12:00:15;3.37;;;2.93;;
16228;SDS011;8222;51.462;12.630;2023-05-09T12:02:42;3.30;;;3.10;;
16228;SDS011;8222;51.462;12.630;2023-05-09T12:05:15;3.40;;;3.17;;
16228;SDS011;8222;51.462;12.630;2023-05-09T12:07:42;3.53;;;3.20;;
16228;SDS011;8222;51.462;12.630;2023-05-09T12:10:09;6.13;;;3.37;;
16228;SDS011;8222;51.462;12.630;2023-05-09T12:12:45;4.25;;;3.78;;
16228;SDS011;8222;51.462;12.630;2023-05-09T12:15:12;4.87;;;3.10;;
16228;SDS011;8222;51.462;12.630;2023-05-09T12:17:39;4.15;;;2.95;;
16228;SDS011;8222;51.462;12.630;2023-05-09T12:20:10;4.97;;;2.83;;
16228;SDS011;8222;51.462;12.630;2023-05-09T12:22:44;3.10;;;2.90;;
16228;SDS011;8222;51.462;12.630;2023-05-09T12:25:16;3.90;;;3.17;;
16228;SDS011;8222;51.462;12.630;2023-05-09T12:27:44;2.60;;;2.40;;
16228;SDS011;8222;51.462;12.630;2023-05-09T12:30:12;3.27;;;2.97;;
16228;SDS011;8222;51.462;12.630;2023-05-09T12:32:40;5.20;;;3.15;;
16228;SDS011;8222;51.462;12.630;2023-05-09T12:35:07;2.93;;;2.73;;
16228;SDS011;8222;51.462;12.630;2023-05-09T12:37:34;3.30;;;2.77;;
16228;SDS011;8222;51.462;12.630;2023-05-09T12:42:41;3.57;;;2.73;;
16228;SDS011;8222;51.462;12.630;2023-05-09T12:45:13;3.00;;;2.73;;
16228;SDS011;8222;51.462;12.630;2023-05-09T12:47:44;3.07;;;2.77;;
16228;SDS011;8222;51.462;12.630;2023-05-09T12:50:15;3.30;;;2.53;;
16228;SDS011;8222;51.462;12.630;2023-05-09T12:52:48;2.83;;;2.60;;
16228;SDS011;8222;51.462;12.630;2023-05-09T12:55:20;2.65;;;2.45;;
16228;SDS011;8222;51.462;12.630;2023-05-09T12:58:02;3.10;;;2.63;;
16228;SDS011;8222;51.462;12.630;2023-05-09T13:00:39;2.93;;;2.57;;
16228;SDS011;8222;51.462;12.630;2023-05-09T13:03:19;3.15;;;2.47;;
16228;SDS011;8222;51.462;12.630;2023-05-09T13:06:03;2.92;;;2.55;;
16228;SDS011;8222;51.462;12.630;2023-05-09T13:08:41;3.65;;;2.88;;
16228;SDS011;8222;51.462;12.630;2023-05-09T13:11:26;2.67;;;2.47;;
16228;SDS011;8222;51.462;12.630;2023-05-09T13:13:58;3.70;;;2.57;;
16228;SDS011;8222;51.462;12.630;2023-05-09T13:16:28;4.00;;;2.75;;
16228;SDS011;8222;51.462;12.630;2023-05-09T13:18:53;3.20;;;2.90;;
16228;SDS011;8222;51.462;12.630;2023-05-09T13:21:19;2.80;;;2.42;;
16228;SDS011;8222;51.462;12.630;2023-05-09T13:23:47;3.37;;;2.40;;
16228;SDS011;8222;51.462;12.630;2023-05-09T13:26:18;3.53;;;2.83;;
16228;SDS011;8222;51.462;12.630;2023-05-09T13:28:46;2.97;;;2.67;;
16228;SDS011;8222;51.462;12.630;2023-05-09T13:31:35;3.53;;;2.47;;
16228;SDS011;8222;51.462;12.630;2023-05-09T13:34:13;5.07;;;2.73;;
16228;SDS011;8222;51.462;12.630;2023-05-09T13:36:41;2.10;;;2.00;;
16228;SDS011;8222;51.462;12.630;2023-05-09T13:39:10;2.60;;;2.30;;
16228;SDS011;8222;51.462;12.630;2023-05-09T13:41:36;2.50;;;2.30;;
16228;SDS011;8222;51.462;12.630;2023-05-09T13:44:02;4.23;;;2.43;;
16228;SDS011;8222;51.462;12.630;2023-05-09T13:46:27;3.35;;;2.50;;
16228;SDS011;8222;51.462;12.630;2023-05-09T13:49:03;2.87;;;2.13;;
16228;SDS011;8222;51.462;12.630;2023-05-09T13:51:32;3.10;;;2.20;;
16228;SDS011;8222;51.462;12.630;2023-05-09T13:54:04;2.37;;;2.17;;
16228;SDS011;8222;51.462;12.630;2023-05-09T13:56:37;3.43;;;2.43;;
16228;SDS011;8222;51.462;12.630;2023-05-09T13:59:03;3.10;;;2.30;;
16228;SDS011;8222;51.462;12.630;2023-05-09T14:01:30;2.13;;;1.87;;
16228;SDS011;8222;51.462;12.630;2023-05-09T14:04:01;3.43;;;2.33;;
16228;SDS011;8222;51.462;12.630;2023-05-09T14:06:33;2.40;;;1.90;;
16228;SDS011;8222;51.462;12.630;2023-05-09T14:09:12;2.35;;;2.15;;
16228;SDS011;8222;51.462;12.630;2023-05-09T14:11:39;2.00;;;1.90;;
16228;SDS011;8222;51.462;12.630;2023-05-09T14:14:16;2.90;;;2.50;;
16228;SDS011;8222;51.462;12.630;2023-05-09T14:16:43;3.20;;;2.40;;
16228;SDS011;8222;51.462;12.630;2023-05-09T14:19:11;3.07;;;2.87;;
16228;SDS011;8222;51.462;12.630;2023-05-09T14:21:40;2.53;;;2.33;;
16228;SDS011;8222;51.462;12.630;2023-05-09T14:24:09;2.63;;;2.43;;
16228;SDS011;8222;51.462;12.630;2023-05-09T14:26:36;3.00;;;2.40;;
16228;SDS011;8222;51.462;12.630;2023-05-09T14:29:07;2.30;;;1.83;;
16228;SDS011;8222;51.462;12.630;2023-05-09T14:31:33;2.80;;;2.30;;
16228;SDS011;8222;51.462;12.630;2023-05-09T14:34:02;3.67;;;2.87;;
16228;SDS011;8222;51.462;12.630;2023-05-09T14:36:30;3.83;;;2.47;;
16228;SDS011;8222;51.462;12.630;2023-05-09T14:38:56;2.07;;;1.97;;
16228;SDS011;8222;51.462;12.630;2023-05-09T14:41:22;2.10;;;1.90;;
16228;SDS011;8222;51.462;12.630;2023-05-09T14:43:56;2.90;;;2.30;;
16228;SDS011;8222;51.462;12.630;2023-05-09T14:46:24;2.90;;;1.97;;
16228;SDS011;8222;51.462;12.630;2023-05-09T14:48:53;2.77;;;2.43;;
16228;SDS011;8222;51.462;12.630;2023-05-09T14:51:21;2.47;;;2.28;;
16228;SDS011;8222;51.462;12.630;2023-05-09T14:53:47;2.87;;;2.63;;
16228;SDS011;8222;51.462;12.630;2023-05-09T14:56:15;2.40;;;1.93;;
16228;SDS011;8222;51.462;12.630;2023-05-09T14:58:41;2.60;;;2.10;;
16228;SDS011;8222;51.462;12.630;2023-05-09T15:01:06;2.03;;;1.93;;
16228;SDS011;8222;51.462;12.630;2023-05-09T15:03:34;2.30;;;2.13;;
16228;SDS011;8222;51.462;12.630;2023-05-09T15:06:03;2.63;;;1.85;;
16228;SDS011;8222;51.462;12.630;2023-05-09T15:08:35;3.58;;;2.47;;
16228;SDS011;8222;51.462;12.630;2023-05-09T15:11:03;2.73;;;2.33;;
16228;SDS011;8222;51.462;12.630;2023-05-09T15:13:31;3.53;;;2.10;;
16228;SDS011;8222;51.462;12.630;2023-05-09T15:15:58;2.60;;;2.40;;
16228;SDS011;8222;51.462;12.630;2023-05-09T15:18:26;2.53;;;2.33;;
16228;SDS011;8222;51.462;12.630;2023-05-09T15:20:55;1.90;;;1.80;;
16228;SDS011;8222;51.462;12.630;2023-05-09T15:23:22;2.75;;;2.00;;